Time;durP1;ratioP1;P1;durP2;ratioP2;P2;SDS_P1;SDS_P2;PMS_P1;PMS_P2;Temp;Humidity;BMP_temperature;BMP_pressure;BME280_temperature;BME280_humidity;BME280_pressure;Samples;Min_cycle;Max_cycle;Signal;HPM_P1;HPM_P2
2021/08/12 00:01:26;;;;;;;12.97;8.80;;;15.90;99.90;;;;;;4437393;32;20178;-62
2021/08/12 00:03:53;;;;;;;14.57;9.70;;;15.80;99.90;;;;;;4437061;32;20204;-61
2021/08/12 00:06:21;;;;;;;11.57;8.57;;;15.80;99.90;;;;;;4438391;32;20162;-61
2021/08/12 00:08:48;;;;;;;12.30;8.43;;;15.80;99.90;;;;;;4437214;32;20143;-61
2021/08/12 00:11:15;;;;;;;11.13;7.80;;;15.80;99.90;;;;;;4437112;32;20173;-62
2021/08/12 00:13:42;;;;;;;11.13;8.03;;;15.70;99.90;;;;;;4437545;32;20205;-62
2021/08/12 00:16:08;;;;;;;12.33;9.20;;;15.70;99.90;;;;;;4437105;32;20143;-62
2021/08/12 00:18:35;;;;;;;13.20;8.07;;;15.70;99.90;;;;;;4436755;32;20155;-63
2021/08/12 00:21:02;;;;;;;10.73;9.17;;;15.70;99.90;;;;;;4436913;32;20230;-60
2021/08/12 00:23:30;;;;;;;13.50;9.07;;;15.60;99.90;;;;;;4437659;32;20178;-61
2021/08/12 00:25:57;;;;;;;15.27;9.83;;;15.60;99.90;;;;;;4438493;32;20574;-63
2021/08/12 00:28:24;;;;;;;15.33;9.53;;;15.60;99.90;;;;;;4436447;32;20163;-61
2021/08/12 00:30:51;;;;;;;15.20;9.23;;;15.60;99.90;;;;;;4437114;32;20215;-61
2021/08/12 00:33:18;;;;;;;13.83;9.63;;;15.50;99.90;;;;;;4436598;32;20148;-61
2021/08/12 00:35:45;;;;;;;16.70;10.43;;;15.60;99.90;;;;;;4436481;32;20192;-63
2021/08/12 00:38:12;;;;;;;16.00;10.07;;;15.60;99.90;;;;;;4436637;32;20181;-61
2021/08/12 00:40:41;;;;;;;13.13;9.83;;;15.50;99.90;;;;;;4436504;32;20151;-63
2021/08/12 00:43:08;;;;;;;14.70;11.83;;;15.50;99.90;;;;;;4436436;32;20162;-61
2021/08/12 00:45:35;;;;;;;15.30;10.60;;;15.40;99.90;;;;;;4436307;32;20161;-62
2021/08/12 00:48:01;;;;;;;13.77;9.53;;;15.40;99.90;;;;;;4438138;32;20148;-63
2021/08/12 00:50:28;;;;;;;15.50;10.37;;;15.30;99.90;;;;;;4436298;32;20185;-62
2021/08/12 00:52:57;;;;;;;13.57;10.77;;;15.30;99.90;;;;;;4438138;32;20530;-63
2021/08/12 00:55:24;;;;;;;13.57;10.47;;;15.30;99.90;;;;;;4437763;32;20189;-62
2021/08/12 00:57:52;;;;;;;19.03;11.93;;;15.40;99.90;;;;;;4436270;32;20189;-61
2021/08/12 01:00:19;;;;;;;17.13;11.37;;;15.40;99.90;;;;;;4436331;32;20505;-61
2021/08/12 01:02:46;;;;;;;16.40;11.17;;;15.40;99.90;;;;;;4436872;32;20139;-60
2021/08/12 01:05:13;;;;;;;16.20;11.93;;;15.40;99.90;;;;;;4436127;32;20182;-60
2021/08/12 01:07:48;;;;;;;17.30;12.80;;;15.40;99.90;;;;;;4436168;32;20159;-60
2021/08/12 01:10:19;;;;;;;17.80;12.17;;;15.40;99.90;;;;;;4436913;32;20675;-61
2021/08/12 01:12:58;;;;;;;18.43;11.93;;;15.40;99.90;;;;;;4437855;32;20166;-61
2021/08/12 01:15:28;;;;;;;17.23;12.40;;;15.40;99.90;;;;;;4436215;32;20165;-61
2021/08/12 01:18:01;;;;;;;21.20;15.00;;;15.40;99.90;;;;;;4436403;32;20147;-62
2021/08/12 01:20:47;;;;;;;18.00;13.20;;;15.40;99.90;;;;;;4437352;32;20143;-62
2021/08/12 01:23:15;;;;;;;20.50;13.50;;;15.40;99.90;;;;;;4435929;32;20161;-61
2021/08/12 01:25:44;;;;;;;15.43;11.13;;;15.30;99.90;;;;;;4436082;32;20147;-62
2021/08/12 01:28:17;;;;;;;14.40;11.33;;;15.30;99.90;;;;;;4435999;32;20179;-61
2021/08/12 01:30:53;;;;;;;18.23;12.30;;;15.30;99.90;;;;;;4435837;32;20223;-61
2021/08/12 01:33:30;;;;;;;13.47;10.07;;;15.20;99.90;;;;;;4437206;32;20202;-63
2021/08/12 01:36:03;;;;;;;15.20;10.53;;;15.20;99.90;;;;;;4435702;32;20166;-61
2021/08/12 01:38:32;;;;;;;14.10;10.83;;;15.20;99.90;;;;;;4435989;32;20630;-62
2021/08/12 01:41:00;;;;;;;16.83;10.83;;;15.20;99.90;;;;;;4437447;32;20143;-62
2021/08/12 01:43:28;;;;;;;17.30;11.83;;;15.20;99.90;;;;;;4435613;32;20155;-61
2021/08/12 01:45:57;;;;;;;16.60;12.50;;;15.20;99.90;;;;;;4435779;32;20182;-61
2021/08/12 01:48:27;;;;;;;16.37;12.13;;;15.20;99.90;;;;;;4435606;32;20162;-63
2021/08/12 01:50:55;;;;;;;17.40;12.17;;;15.20;99.90;;;;;;4436269;32;20182;-61
2021/08/12 01:53:23;;;;;;;15.73;11.83;;;15.20;99.90;;;;;;4436281;32;20147;-61
2021/08/12 01:55:52;;;;;;;18.33;12.93;;;15.20;99.90;;;;;;4436394;32;20184;-63
2021/08/12 01:58:22;;;;;;;18.87;12.53;;;15.20;99.90;;;;;;4435416;32;20148;-61
2021/08/12 02:00:51;;;;;;;19.30;13.83;;;15.20;99.90;;;;;;4437436;32;20166;-61
2021/08/12 02:03:20;;;;;;;19.13;14.40;;;15.20;99.90;;;;;;4435638;32;20196;-63
2021/08/12 02:05:49;;;;;;;17.60;13.97;;;15.20;99.90;;;;;;4436100;32;20614;-62
2021/08/12 02:08:18;;;;;;;18.53;13.80;;;15.30;99.90;;;;;;4435456;32;20142;-61
2021/08/12 02:10:46;;;;;;;20.40;14.97;;;15.30;99.90;;;;;;4435377;32;20261;-63
2021/08/12 02:13:13;;;;;;;23.17;14.70;;;15.30;99.90;;;;;;4435618;32;20140;-62
2021/08/12 02:15:40;;;;;;;22.23;14.67;;;15.30;99.90;;;;;;4437145;32;20174;-62
2021/08/12 02:18:07;;;;;;;23.67;15.97;;;15.30;99.90;;;;;;4435591;32;20574;-62
2021/08/12 02:20:35;;;;;;;25.13;16.07;;;15.30;99.90;;;;;;4436243;32;20201;-62
2021/08/12 02:23:06;;;;;;;22.97;15.90;;;15.30;99.90;;;;;;4438515;32;20156;-62
2021/08/12 02:25:37;;;;;;;20.53;16.10;;;15.30;99.90;;;;;;4439375;32;20181;-63
2021/08/12 02:28:10;;;;;;;25.30;15.63;;;15.30;99.90;;;;;;4438249;32;20195;-63
2021/08/12 02:30:40;;;;;;;22.23;17.43;;;15.30;99.90;;;;;;4440114;32;20147;-62
2021/08/12 02:33:11;;;;;;;24.80;16.73;;;15.20;99.90;;;;;;4438387;32;20163;-64
2021/08/12 02:35:42;;;;;;;24.07;16.87;;;15.20;99.90;;;;;;4438180;32;20202;-60
2021/08/12 02:38:13;;;;;;;23.70;17.50;;;15.20;99.90;;;;;;4438541;32;20551;-62
2021/08/12 02:40:41;;;;;;;23.10;16.37;;;15.10;99.90;;;;;;4438271;32;20172;-62
2021/08/12 02:43:10;;;;;;;21.10;16.27;;;15.00;99.90;;;;;;4438226;32;20152;-63
2021/08/12 02:45:38;;;;;;;23.53;15.10;;;15.00;99.90;;;;;;4438405;32;20592;-63
2021/08/12 02:48:09;;;;;;;22.43;15.87;;;15.00;99.90;;;;;;4438631;32;20617;-63
2021/08/12 02:50:38;;;;;;;24.27;15.77;;;15.00;99.90;;;;;;4438152;32;20551;-62
2021/08/12 02:53:05;;;;;;;19.70;16.33;;;15.00;99.90;;;;;;4439430;32;20511;-62
2021/08/12 02:55:33;;;;;;;21.67;15.73;;;15.10;99.90;;;;;;4438211;32;20185;-62
2021/08/12 02:58:00;;;;;;;21.80;15.10;;;15.10;99.90;;;;;;4438189;32;20578;-61
2021/08/12 03:00:28;;;;;;;22.07;17.17;;;15.20;99.90;;;;;;4437851;32;20452;-61
2021/08/12 03:02:56;;;;;;;22.53;16.93;;;15.20;99.90;;;;;;4439643;32;20191;-61
2021/08/12 03:05:23;;;;;;;23.63;16.73;;;15.20;99.90;;;;;;4437819;32;20177;-61
2021/08/12 03:07:50;;;;;;;21.97;15.83;;;15.10;99.90;;;;;;4438751;32;20166;-62
2021/08/12 03:10:20;;;;;;;23.07;16.77;;;15.10;99.90;;;;;;4437897;32;20192;-61
2021/08/12 03:12:47;;;;;;;24.93;17.97;;;15.00;99.90;;;;;;4437877;32;20152;-61
2021/08/12 03:15:15;;;;;;;23.80;16.60;;;15.00;99.90;;;;;;4437926;32;20169;-62
2021/08/12 03:17:44;;;;;;;22.30;16.13;;;14.90;99.90;;;;;;4439454;32;20593;-61
2021/08/12 03:20:12;;;;;;;22.13;16.00;;;14.90;99.90;;;;;;4439085;32;20167;-62
2021/08/12 03:22:39;;;;;;;20.93;15.93;;;14.80;99.90;;;;;;4438221;32;20239;-61
2021/08/12 03:25:07;;;;;;;26.03;16.93;;;14.70;99.90;;;;;;4437743;32;20174;-63
2021/08/12 03:27:35;;;;;;;23.17;17.50;;;14.70;99.90;;;;;;4307877;32;4256808;-63
2021/08/12 03:30:02;;;;;;;21.77;17.33;;;14.70;99.90;;;;;;4437503;32;20607;-61
2021/08/12 03:32:29;;;;;;;23.23;17.83;;;14.70;99.90;;;;;;4437472;32;20197;-61
2021/08/12 03:35:00;;;;;;;21.57;17.37;;;14.70;99.90;;;;;;4438226;32;20433;-60
2021/08/12 03:37:27;;;;;;;26.37;17.00;;;14.60;99.90;;;;;;4437556;32;20155;-61
2021/08/12 03:39:53;;;;;;;25.47;18.37;;;14.70;99.90;;;;;;4439293;32;20147;-61
2021/08/12 03:42:20;;;;;;;24.07;18.10;;;14.70;99.90;;;;;;4439050;32;20151;-62
2021/08/12 03:44:47;;;;;;;23.73;18.50;;;14.70;99.90;;;;;;4438285;32;20155;-62
2021/08/12 03:47:14;;;;;;;24.73;18.90;;;14.70;99.90;;;;;;4437337;32;20183;-61
2021/08/12 03:49:41;;;;;;;26.03;16.97;;;14.70;99.90;;;;;;4437692;32;20148;-63
2021/08/12 03:52:09;;;;;;;21.97;17.53;;;14.60;99.90;;;;;;4437419;32;20211;-63
2021/08/12 03:54:36;;;;;;;24.87;17.60;;;14.60;99.90;;;;;;4437291;32;20242;-63
2021/08/12 03:57:03;;;;;;;26.60;19.67;;;14.60;99.90;;;;;;4437975;32;20211;-62
2021/08/12 03:59:30;;;;;;;24.23;18.77;;;14.50;99.90;;;;;;4437956;32;20202;-59
2021/08/12 04:01:57;;;;;;;25.43;19.10;;;14.60;99.90;;;;;;4437285;32;20170;-60
2021/08/12 04:04:24;;;;;;;24.77;20.10;;;14.60;99.90;;;;;;4438524;32;20175;-62
2021/08/12 04:06:51;;;;;;;26.53;20.50;;;14.60;99.90;;;;;;4437030;32;20147;-59
2021/08/12 04:09:20;;;;;;;31.83;20.60;;;14.70;99.90;;;;;;4437748;32;20578;-60
2021/08/12 04:11:46;;;;;;;27.27;21.57;;;14.70;99.90;;;;;;4437289;32;20191;-61
2021/08/12 04:14:13;;;;;;;25.50;20.23;;;14.70;99.90;;;;;;4438671;32;20181;-61
2021/08/12 04:16:40;;;;;;;24.17;19.70;;;14.70;99.90;;;;;;4436820;32;20261;-61
2021/08/12 04:19:09;;;;;;;24.07;19.57;;;14.80;99.90;;;;;;4438303;32;20155;-62
2021/08/12 04:21:35;;;;;;;27.17;21.07;;;14.80;99.90;;;;;;4436954;32;20151;-61
2021/08/12 04:24:02;;;;;;;27.33;20.80;;;14.90;99.90;;;;;;4436950;32;20575;-61
2021/08/12 04:26:30;;;;;;;25.30;20.10;;;14.90;99.90;;;;;;4436572;32;20151;-61
2021/08/12 04:28:58;;;;;;;26.03;19.37;;;15.00;99.90;;;;;;4436483;32;20182;-60
2021/08/12 04:31:25;;;;;;;28.20;20.80;;;15.00;99.90;;;;;;4437850;32;20159;-61
2021/08/12 04:33:51;;;;;;;27.30;20.53;;;15.00;99.90;;;;;;4436817;32;20202;-62
2021/08/12 04:36:18;;;;;;;27.13;20.33;;;15.00;99.90;;;;;;4438402;32;20166;-61
2021/08/12 04:38:45;;;;;;;25.70;20.60;;;15.00;99.90;;;;;;4437420;32;20516;-62
2021/08/12 04:41:12;;;;;;;26.53;19.87;;;15.00;99.90;;;;;;4438148;32;20181;-62
2021/08/12 04:43:40;;;;;;;25.30;19.53;;;15.00;99.90;;;;;;4436841;32;20669;-61
2021/08/12 04:46:07;;;;;;;27.93;21.17;;;15.00;99.90;;;;;;4437809;32;20183;-61
2021/08/12 04:48:34;;;;;;;25.67;19.93;;;15.10;99.90;;;;;;4438151;32;20519;-62
2021/08/12 04:51:00;;;;;;;25.90;18.70;;;15.10;99.90;;;;;;4436288;32;20177;-61
2021/08/12 04:53:27;;;;;;;27.10;21.37;;;15.20;99.90;;;;;;4436859;32;20193;-61
2021/08/12 04:55:54;;;;;;;23.63;19.30;;;15.30;99.90;;;;;;4436870;32;20166;-61
2021/08/12 04:58:21;;;;;;;24.53;19.80;;;15.30;99.90;;;;;;4437222;32;20182;-62
2021/08/12 05:00:49;;;;;;;24.20;19.17;;;15.40;99.90;;;;;;4436254;32;20166;-61
2021/08/12 05:03:16;;;;;;;22.57;18.03;;;15.40;99.90;;;;;;4436224;32;20486;-61
2021/08/12 05:05:42;;;;;;;28.13;20.33;;;15.50;99.90;;;;;;4438071;32;20174;-61
2021/08/12 05:08:09;;;;;;;25.97;19.20;;;15.60;99.90;;;;;;4436709;32;20166;-61
2021/08/12 05:10:36;;;;;;;24.73;20.33;;;15.70;99.90;;;;;;4436786;32;20503;-60
2021/08/12 05:13:03;;;;;;;26.33;19.60;;;16.00;99.90;;;;;;4437807;32;20515;-61
2021/08/12 05:15:29;;;;;;;23.30;18.23;;;16.30;99.90;;;;;;4436680;32;20171;-61
2021/08/12 05:17:58;;;;;;;21.47;16.90;;;16.90;99.90;;;;;;4437107;32;20574;-61
2021/08/12 05:20:24;;;;;;;25.17;17.80;;;17.60;99.90;;;;;;4435925;32;20194;-62
2021/08/12 05:22:51;;;;;;;22.97;16.83;;;17.70;99.90;;;;;;4437700;32;20151;-61
2021/08/12 05:25:18;;;;;;;22.47;17.00;;;17.60;99.90;;;;;;4435697;32;20164;-61
2021/08/12 05:27:45;;;;;;;22.07;17.00;;;17.50;99.90;;;;;;4437000;32;20417;-61
2021/08/12 05:30:12;;;;;;;21.63;16.23;;;17.40;99.90;;;;;;4436010;32;20203;-61
2021/08/12 05:32:39;;;;;;;19.37;15.30;;;17.40;99.90;;;;;;4435970;32;20162;-62
2021/08/12 05:35:08;;;;;;;20.13;16.57;;;17.40;99.90;;;;;;4436210;32;20169;-61
2021/08/12 05:37:35;;;;;;;20.63;16.07;;;17.50;99.90;;;;;;4435633;32;20162;-60
2021/08/12 05:40:02;;;;;;;21.60;15.73;;;17.50;99.90;;;;;;4436801;32;20203;-61
2021/08/12 05:42:29;;;;;;;20.07;15.70;;;17.50;99.90;;;;;;4435820;32;20155;-61
2021/08/12 05:44:55;;;;;;;21.90;14.50;;;17.50;99.90;;;;;;4436720;32;20151;-61
2021/08/12 05:47:22;;;;;;;22.00;15.87;;;17.50;99.90;;;;;;4437423;32;20161;-61
2021/08/12 05:49:49;;;;;;;20.07;15.83;;;17.60;99.90;;;;;;4437336;32;20645;-61
2021/08/12 05:52:17;;;;;;;21.40;14.50;;;17.50;99.90;;;;;;4437440;32;20177;-61
2021/08/12 05:54:44;;;;;;;20.53;16.07;;;17.50;99.90;;;;;;4437071;32;20503;-61
2021/08/12 05:57:11;;;;;;;18.10;14.97;;;17.50;99.90;;;;;;4435398;32;20173;-61
2021/08/12 05:59:38;;;;;;;19.57;14.63;;;17.50;99.90;;;;;;4436094;32;20522;-61
2021/08/12 06:02:05;;;;;;;16.57;13.63;;;17.40;99.90;;;;;;4435526;32;20147;-60
2021/08/12 06:04:32;;;;;;;19.37;14.90;;;17.40;99.90;;;;;;4436033;32;20169;-59
2021/08/12 06:06:58;;;;;;;15.57;13.40;;;17.30;99.90;;;;;;4436037;32;20155;-61
2021/08/12 06:09:27;;;;;;;19.17;14.03;;;17.30;99.90;;;;;;4435560;32;20148;-60
2021/08/12 06:11:53;;;;;;;20.47;14.70;;;17.30;99.90;;;;;;4435472;32;20177;-60
2021/08/12 06:14:20;;;;;;;18.37;13.90;;;17.30;99.90;;;;;;4435895;32;20167;-62
2021/08/12 06:16:47;;;;;;;20.03;13.53;;;17.30;99.90;;;;;;4435888;32;20510;-61
2021/08/12 06:19:14;;;;;;;19.67;14.43;;;17.30;99.90;;;;;;4435645;32;20155;-61
2021/08/12 06:21:41;;;;;;;20.90;15.10;;;17.30;99.90;;;;;;4435351;32;20194;-62
2021/08/12 06:24:09;;;;;;;19.87;13.97;;;17.30;99.90;;;;;;4435275;32;20190;-61
2021/08/12 06:26:37;;;;;;;18.03;14.27;;;17.40;99.90;;;;;;4435706;32;20170;-62
2021/08/12 06:29:04;;;;;;;17.77;13.67;;;17.50;99.90;;;;;;4437075;32;20167;-61
2021/08/12 06:31:32;;;;;;;20.40;14.00;;;17.60;99.90;;;;;;4435634;32;20166;-62
2021/08/12 06:33:58;;;;;;;18.87;13.57;;;17.70;99.90;;;;;;4435701;32;20155;-62
2021/08/12 06:36:25;;;;;;;17.27;14.10;;;17.80;99.90;;;;;;4435290;32;20152;-61
2021/08/12 06:38:59;;;;;;;21.37;15.07;;;17.90;99.90;;;;;;4435135;32;20202;-61
2021/08/12 06:41:26;;;;;;;16.23;13.00;;;18.00;99.90;;;;;;4435404;32;20440;-61
2021/08/12 06:43:54;;;;;;;16.87;13.03;;;18.10;99.90;;;;;;4435283;32;20174;-61
2021/08/12 06:46:21;;;;;;;18.57;14.37;;;18.20;99.90;;;;;;4435329;32;20181;-61
2021/08/12 06:48:48;;;;;;;19.23;14.37;;;18.30;99.90;;;;;;4435418;32;20210;-61
2021/08/12 06:51:15;;;;;;;20.33;14.67;;;18.30;99.90;;;;;;4435874;32;20146;-62
2021/08/12 06:53:42;;;;;;;21.57;15.07;;;18.40;99.90;;;;;;4435259;32;20174;-61
2021/08/12 06:56:09;;;;;;;19.53;13.50;;;18.50;99.90;;;;;;4435475;32;20563;-62
2021/08/12 06:58:35;;;;;;;18.27;13.30;;;18.50;99.90;;;;;;4436139;32;20515;-61
2021/08/12 07:01:04;;;;;;;17.77;14.43;;;18.50;99.90;;;;;;4435494;32;20550;-60
2021/08/12 07:03:30;;;;;;;18.20;14.83;;;18.60;99.90;;;;;;4435370;32;20471;-61
2021/08/12 07:06:00;;;;;;;22.03;17.03;;;18.60;99.90;;;;;;4435203;32;20167;-61
2021/08/12 07:08:32;;;;;;;19.33;14.50;;;18.70;99.90;;;;;;4436887;32;20559;-61
2021/08/12 07:10:59;;;;;;;26.87;16.37;;;18.90;99.90;;;;;;4438046;32;20206;-61
2021/08/12 07:13:26;;;;;;;22.90;15.67;;;19.10;99.90;;;;;;4439440;32;20202;-62
2021/08/12 07:15:52;;;;;;;21.30;16.50;;;19.20;99.90;;;;;;4437993;32;20204;-61
2021/08/12 07:18:21;;;;;;;21.17;14.63;;;19.30;99.90;;;;;;4437946;32;20189;-62
2021/08/12 07:20:49;;;;;;;22.47;16.40;;;19.40;99.90;;;;;;4437941;32;20150;-61
2021/08/12 07:23:15;;;;;;;18.63;15.43;;;19.40;99.90;;;;;;4438717;32;20158;-61
2021/08/12 07:25:42;;;;;;;22.83;16.50;;;19.50;99.90;;;;;;4437732;32;20173;-61
2021/08/12 07:28:11;;;;;;;22.83;17.33;;;19.70;99.90;;;;;;4439028;32;20167;-62
2021/08/12 07:30:38;;;;;;;18.23;14.80;;;20.10;99.90;;;;;;4439304;32;20202;-61
2021/08/12 07:33:05;;;;;;;23.30;16.40;;;20.20;99.90;;;;;;4437784;32;20155;-62
2021/08/12 07:35:33;;;;;;;21.60;14.97;;;20.20;99.90;;;;;;4437632;32;20528;-61
2021/08/12 07:38:00;;;;;;;20.93;14.70;;;20.10;99.90;;;;;;4437953;32;20550;-62
2021/08/12 07:40:28;;;;;;;21.33;15.57;;;20.30;99.90;;;;;;4437632;32;20574;-61
2021/08/12 07:42:55;;;;;;;19.73;13.93;;;20.90;99.90;;;;;;4437736;32;20155;-61
2021/08/12 07:45:22;;;;;;;16.50;12.80;;;21.70;99.90;;;;;;4437455;32;20171;-65
2021/08/12 07:47:48;;;;;;;17.43;11.97;;;23.60;99.90;;;;;;4436978;32;20186;-63
2021/08/12 07:50:15;;;;;;;12.18;8.98;;;28.00;97.00;;;;;;4437369;32;20151;-63
2021/08/12 07:52:44;;;;;;;10.98;8.18;;;33.00;86.90;;;;;;4437204;32;20159;-62
2021/08/12 07:55:13;;;;;;;9.40;7.43;;;38.00;64.50;;;;;;4437696;32;20169;-62
2021/08/12 07:57:40;;;;;;;8.65;6.80;;;41.60;54.50;;;;;;4437277;32;20190;-62
2021/08/12 08:00:08;;;;;;;9.15;7.10;;;43.80;47.60;;;;;;4437087;32;20167;-64
2021/08/12 08:02:45;;;;;;;7.40;5.47;;;45.40;42.70;;;;;;4436797;32;20165;-63
2021/08/12 08:05:15;;;;;;;7.32;6.53;;;47.10;41.40;;;;;;4436857;32;20207;-63
2021/08/12 08:07:43;;;;;;;7.85;6.18;;;48.50;38.40;;;;;;4436868;32;20196;-62
2021/08/12 08:10:11;;;;;;;8.35;7.05;;;49.40;37.50;;;;;;4438581;32;20155;-63
2021/08/12 08:12:40;;;;;;;7.68;6.18;;;49.90;35.40;;;;;;4436782;32;20151;-62
2021/08/12 08:15:07;;;;;;;8.18;7.37;;;50.00;35.40;;;;;;4437720;32;20151;-62
2021/08/12 08:17:34;;;;;;;7.20;6.43;;;49.80;34.60;;;;;;4437325;32;20493;-63
2021/08/12 08:20:01;;;;;;;8.02;6.00;;;50.00;34.50;;;;;;4437641;32;20226;-62
2021/08/12 08:22:29;;;;;;;6.53;5.80;;;50.10;34.20;;;;;;4437678;32;20205;-63
2021/08/12 08:24:58;;;;;;;10.48;7.87;;;50.80;33.70;;;;;;4437644;32;20333;-62
2021/08/12 08:27:25;;;;;;;7.55;5.37;;;51.30;33.20;;;;;;4436776;32;20179;-64
2021/08/12 08:29:52;;;;;;;6.53;5.40;;;51.90;33.60;;;;;;4436484;32;20158;-62
2021/08/12 08:32:19;;;;;;;8.50;6.90;;;52.40;32.70;;;;;;4437397;32;20147;-62
2021/08/12 08:34:46;;;;;;;5.55;4.70;;;52.80;31.80;;;;;;4436808;32;20602;-63
2021/08/12 08:37:13;;;;;;;5.75;5.15;;;52.70;32.30;;;;;;4437024;32;20219;-63
2021/08/12 08:39:40;;;;;;;4.75;4.30;;;52.90;31.80;;;;;;4436525;32;20147;-64
2021/08/12 08:42:11;;;;;;;6.53;5.20;;;53.10;31.40;;;;;;4436662;32;20170;-62
2021/08/12 08:44:42;;;;;;;5.55;4.70;;;53.00;31.60;;;;;;4438445;32;20662;-63
2021/08/12 08:47:12;;;;;;;6.18;5.05;;;53.00;31.60;;;;;;4437738;32;20468;-63
2021/08/12 08:49:42;;;;;;;5.62;4.40;;;53.10;31.60;;;;;;4436636;32;20147;-63
2021/08/12 08:52:10;;;;;;;5.35;4.45;;;53.40;31.40;;;;;;4437012;32;20636;-62
2021/08/12 08:54:38;;;;;;;5.03;4.37;;;53.00;31.10;;;;;;4436304;32;20181;-62
2021/08/12 08:57:06;;;;;;;4.47;4.07;;;53.30;31.20;;;;;;4436336;32;20170;-62
2021/08/12 08:59:35;;;;;;;5.82;5.28;;;53.50;30.90;;;;;;4435847;32;20575;-62
2021/08/12 09:02:02;;;;;;;6.45;4.53;;;53.50;30.60;;;;;;4436298;32;20599;-63
2021/08/12 09:04:29;;;;;;;4.68;4.15;;;52.40;31.20;;;;;;4436448;32;20151;-62
2021/08/12 09:06:56;;;;;;;7.10;5.68;;;52.20;31.20;;;;;;4436087;32;20602;-63
2021/08/12 09:09:23;;;;;;;6.93;4.75;;;52.00;31.10;;;;;;4436226;32;20206;-64
2021/08/12 09:11:50;;;;;;;5.60;5.10;;;51.50;31.20;;;;;;4436211;32;20143;-62
2021/08/12 09:14:38;;;;;;;5.40;4.55;;;50.90;31.00;;;;;;4436857;32;20471;-62
2021/08/12 09:17:24;;;;;;;6.03;4.85;;;50.10;31.40;;;;;;4436010;32;20147;-62
2021/08/12 09:20:08;;;;;;;4.72;4.18;;;49.60;31.50;;;;;;4435353;32;20223;-65
2021/08/12 09:22:54;;;;;;;5.95;5.05;;;48.60;31.70;;;;;;4436394;32;20260;-63
2021/08/12 09:25:37;;;;;;;6.25;5.65;;;46.70;33.20;;;;;;4436452;32;20178;-64
2021/08/12 09:28:18;;;;;;;7.20;4.00;;;46.20;34.20;;;;;;4436123;32;20474;-63
2021/08/12 09:31:05;;;;;;;7.07;4.57;;;43.30;35.70;;;;;;4435421;32;20142;-62
2021/08/12 09:33:34;;;;;;;7.20;4.82;;;39.40;38.50;;;;;;4435901;32;20166;-62
2021/08/12 09:36:01;;;;;;;7.57;5.12;;;35.90;42.10;;;;;;4435729;32;20163;-62
2021/08/12 09:38:28;;;;;;;8.18;6.45;;;33.50;45.00;;;;;;4436578;32;20501;-62
2021/08/12 09:41:00;;;;;;;7.15;5.10;;;31.60;48.20;;;;;;4435879;32;20143;-63
2021/08/12 09:43:34;;;;;;;8.98;5.43;;;30.10;50.20;;;;;;4435794;32;20170;-63
2021/08/12 09:46:05;;;;;;;7.70;5.80;;;29.20;53.00;;;;;;4436394;32;20169;-60
2021/08/12 09:48:32;;;;;;;9.63;5.05;;;28.60;54.50;;;;;;4436843;32;20572;-60
2021/08/12 09:51:01;;;;;;;8.82;5.57;;;28.10;56.20;;;;;;4435606;32;20150;-62
2021/08/12 09:53:28;;;;;;;8.25;5.37;;;27.70;57.80;;;;;;4435533;32;20191;-60
2021/08/12 09:55:56;;;;;;;7.30;5.00;;;27.40;59.70;;;;;;4435572;32;20550;-61
2021/08/12 09:58:33;;;;;;;8.77;6.43;;;27.30;61.40;;;;;;4435698;32;20215;-62
2021/08/12 10:01:18;;;;;;;7.97;5.95;;;27.10;61.50;;;;;;4435534;32;20489;-61
2021/08/12 10:03:46;;;;;;;8.07;4.30;;;26.60;63.60;;;;;;4435922;32;20157;-62
2021/08/12 10:06:20;;;;;;;7.25;5.57;;;26.30;65.20;;;;;;4435564;32;20194;-63
2021/08/12 10:08:47;;;;;;;8.32;4.32;;;26.30;66.70;;;;;;4437113;32;20142;-62
2021/08/12 10:11:19;;;;;;;6.90;4.95;;;26.20;68.40;;;;;;4435610;32;20151;-62
2021/08/12 10:13:47;;;;;;;6.85;4.93;;;26.00;71.70;;;;;;4435405;32;20196;-62
2021/08/12 10:16:17;;;;;;;9.45;4.95;;;26.00;72.20;;;;;;4435667;32;20143;-63
2021/08/12 10:18:46;;;;;;;7.95;5.12;;;25.90;74.10;;;;;;4436215;32;20163;-63
2021/08/12 10:21:15;;;;;;;7.47;4.85;;;25.80;75.40;;;;;;4435990;32;20165;-61
2021/08/12 10:23:43;;;;;;;7.40;5.60;;;25.80;77.40;;;;;;4436973;32;20215;-61
2021/08/12 10:26:11;;;;;;;7.87;4.80;;;25.80;78.60;;;;;;4435353;32;20477;-63
2021/08/12 10:28:39;;;;;;;8.10;4.55;;;25.70;79.90;;;;;;4429042;32;20159;-64
2021/08/12 10:31:07;;;;;;;5.57;4.25;;;25.80;81.70;;;;;;4413628;32;20480;-63
2021/08/12 10:33:36;;;;;;;5.90;4.60;;;25.80;82.70;;;;;;4425361;32;20163;-63
2021/08/12 10:36:03;;;;;;;9.23;5.20;;;25.80;84.50;;;;;;4420006;32;20162;-63
2021/08/12 10:38:30;;;;;;;7.80;5.50;;;25.80;83.80;;;;;;4420095;32;20152;-63
2021/08/12 10:40:57;;;;;;;7.57;5.15;;;25.70;84.80;;;;;;4420073;32;20222;-65
2021/08/12 10:43:29;;;;;;;9.07;5.40;;;25.70;84.30;;;;;;4422934;32;20152;-63
2021/08/12 10:45:57;;;;;;;8.27;5.80;;;25.70;85.40;;;;;;4424069;32;20151;-63
2021/08/12 10:48:26;;;;;;;6.87;4.80;;;25.60;84.10;;;;;;4424245;32;20190;-62
2021/08/12 10:51:10;;;;;;;6.15;4.93;;;25.50;84.90;;;;;;4421966;32;20159;-63
2021/08/12 10:53:38;;;;;;;7.50;5.12;;;25.60;86.80;;;;;;4423064;32;20162;-64
2021/08/12 10:56:20;;;;;;;5.12;4.25;;;25.60;87.80;;;;;;4422913;32;20148;-63
2021/08/12 10:58:53;;;;;;;6.22;5.47;;;25.60;87.60;;;;;;4423661;32;20200;-62
2021/08/12 11:01:39;;;;;;;5.40;4.05;;;25.70;86.50;;;;;;4422827;32;20182;-63
2021/08/12 11:04:06;;;;;;;9.35;5.68;;;25.70;89.40;;;;;;4422676;32;20151;-63
2021/08/12 11:06:44;;;;;;;7.32;5.87;;;25.80;88.00;;;;;;4423989;32;20163;-63
2021/08/12 11:09:12;;;;;;;9.52;6.37;;;25.60;86.80;;;;;;4422692;32;20185;-63
2021/08/12 11:11:58;;;;;;;8.07;4.97;;;25.50;87.80;;;;;;4422748;32;20214;-63
2021/08/12 11:14:59;;;;;;;7.28;5.25;;;25.40;89.20;;;;;;4423149;32;20143;-63
2021/08/12 11:17:47;;;;;;;10.10;5.93;;;25.40;90.30;;;;;;4422689;32;20146;-63
2021/08/12 11:20:32;;;;;;;8.38;6.43;;;25.50;90.00;;;;;;4423314;32;20163;-63
2021/08/12 11:23:32;;;;;;;9.15;6.07;;;25.50;90.00;;;;;;4423300;32;20157;-63
2021/08/12 11:26:03;;;;;;;8.00;6.10;;;25.50;90.10;;;;;;4423253;32;20167;-65
2021/08/12 11:28:50;;;;;;;8.82;6.43;;;25.40;90.40;;;;;;4420333;32;20206;-64
2021/08/12 11:31:50;;;;;;;7.22;5.90;;;25.40;90.80;;;;;;4421813;32;20479;-63
2021/08/12 11:34:22;;;;;;;6.62;5.10;;;25.30;91.00;;;;;;4422265;32;20166;-65
2021/08/12 11:37:05;;;;;;;9.48;5.87;;;25.50;91.40;;;;;;4422599;32;20148;-63
2021/08/12 11:39:32;;;;;;;9.77;7.15;;;25.60;91.30;;;;;;4422130;32;20158;-64
2021/08/12 11:42:00;;;;;;;9.20;5.60;;;25.70;91.10;;;;;;4422560;32;20170;-64
2021/08/12 11:44:27;;;;;;;6.47;5.60;;;26.20;91.00;;;;;;4423583;32;20147;-65
2021/08/12 11:46:54;;;;;;;9.30;6.75;;;26.80;91.20;;;;;;4422781;32;20579;-64
2021/08/12 11:49:21;;;;;;;10.80;6.72;;;27.40;88.80;;;;;;4422274;32;20222;-64
2021/08/12 11:51:48;;;;;;;10.68;6.57;;;27.80;88.20;;;;;;4422286;32;20220;-63
2021/08/12 11:54:24;;;;;;;7.40;5.65;;;27.80;85.90;;;;;;4421216;32;20147;-64
2021/08/12 11:56:52;;;;;;;9.65;5.72;;;27.80;86.40;;;;;;4422064;32;20186;-67
2021/08/12 11:59:26;;;;;;;7.57;5.85;;;27.70;85.90;;;;;;4422220;32;20148;-64
2021/08/12 12:01:54;;;;;;;9.68;7.10;;;27.70;86.60;;;;;;4422013;32;20148;-65
2021/08/12 12:04:30;;;;;;;9.13;7.55;;;27.70;85.30;;;;;;4421845;32;20151;-65
2021/08/12 12:06:57;;;;;;;7.97;6.32;;;27.60;86.30;;;;;;4421616;32;20162;-64
2021/08/12 12:09:26;;;;;;;9.10;7.07;;;27.40;86.30;;;;;;4421597;32;20169;-66
2021/08/12 12:11:59;;;;;;;9.60;6.60;;;26.90;86.50;;;;;;4421695;32;20166;-64
2021/08/12 12:14:29;;;;;;;7.15;6.28;;;26.90;87.80;;;;;;4421724;32;20548;-64
2021/08/12 12:17:14;;;;;;;7.10;4.97;;;27.00;87.20;;;;;;4421601;32;20564;-66
2021/08/12 12:20:06;;;;;;;11.93;6.87;;;26.90;88.50;;;;;;4422717;32;20485;-63
2021/08/12 12:22:34;;;;;;;8.43;6.25;;;26.40;88.50;;;;;;4422967;32;20188;-63
2021/08/12 12:25:03;;;;;;;9.38;6.60;;;26.50;89.40;;;;;;4421465;32;20182;-62
2021/08/12 12:27:30;;;;;;;8.38;7.22;;;26.40;89.90;;;;;;4422014;32;20476;-63
2021/08/12 12:30:08;;;;;;;9.10;6.25;;;26.10;89.40;;;;;;4422499;32;20618;-64
2021/08/12 12:32:36;;;;;;;8.98;5.75;;;26.10;90.50;;;;;;4423211;32;20178;-63
2021/08/12 12:35:05;;;;;;;8.05;5.68;;;26.00;90.60;;;;;;4421359;32;20167;-63
2021/08/12 12:37:33;;;;;;;11.52;7.15;;;26.00;91.20;;;;;;4422829;32;20616;-64
2021/08/12 12:40:00;;;;;;;9.30;5.78;;;25.90;90.50;;;;;;4421554;32;20489;-64
2021/08/12 12:42:31;;;;;;;7.05;6.10;;;25.90;91.40;;;;;;4421267;32;20171;-62
2021/08/12 12:45:00;;;;;;;9.25;6.00;;;26.10;91.30;;;;;;4421616;32;20198;-62
2021/08/12 12:47:30;;;;;;;7.18;5.20;;;26.40;90.50;;;;;;4421975;32;20151;-63